sensor_id;sensor_type;location;lat;lon;timestamp;P1;durP1;ratioP1;P2;durP2;ratioP2
27618;SDS011;15039;50.830;4.730;2022-08-04T00:05:12;3.55;;;1.02;;
27618;SDS011;15039;50.830;4.730;2022-08-04T00:08:17;4.55;;;1.10;;
27618;SDS011;15039;50.830;4.730;2022-08-04T00:10:43;6.43;;;1.10;;
27618;SDS011;15039;50.830;4.730;2022-08-04T00:13:14;3.72;;;1.02;;
27618;SDS011;15039;50.830;4.730;2022-08-04T00:15:46;5.25;;;1.30;;
27618;SDS011;15039;50.830;4.730;2022-08-04T00:18:15;2.53;;;1.13;;
27618;SDS011;15039;50.830;4.730;2022-08-04T00:23:09;4.03;;;1.30;;
27618;SDS011;15039;50.830;4.730;2022-08-04T00:25:39;2.08;;;1.05;;
27618;SDS011;15039;50.830;4.730;2022-08-04T00:28:05;2.28;;;1.23;;
27618;SDS011;15039;50.830;4.730;2022-08-04T00:30:31;5.55;;;1.10;;
27618;SDS011;15039;50.830;4.730;2022-08-04T00:32:57;2.78;;;0.90;;
27618;SDS011;15039;50.830;4.730;2022-08-04T00:35:24;4.03;;;1.30;;
27618;SDS011;15039;50.830;4.730;2022-08-04T00:37:51;7.53;;;1.45;;
27618;SDS011;15039;50.830;4.730;2022-08-04T00:43:23;2.33;;;1.13;;
27618;SDS011;15039;50.830;4.730;2022-08-04T00:57:27;3.55;;;0.90;;
27618;SDS011;15039;50.830;4.730;2022-08-04T01:02:36;3.83;;;1.08;;
27618;SDS011;15039;50.830;4.730;2022-08-04T01:05:20;4.97;;;1.17;;
27618;SDS011;15039;50.830;4.730;2022-08-04T01:18:20;4.35;;;1.10;;
27618;SDS011;15039;50.830;4.730;2022-08-04T01:20:53;3.53;;;1.10;;
27618;SDS011;15039;50.830;4.730;2022-08-04T01:29:26;5.50;;;1.15;;
27618;SDS011;15039;50.830;4.730;2022-08-04T01:31:58;1.77;;;1.20;;
27618;SDS011;15039;50.830;4.730;2022-08-04T01:34:33;2.22;;;1.02;;
27618;SDS011;15039;50.830;4.730;2022-08-04T01:37:07;3.97;;;1.08;;
27618;SDS011;15039;50.830;4.730;2022-08-04T01:39:47;4.22;;;1.20;;
27618;SDS011;15039;50.830;4.730;2022-08-04T01:42:16;1.33;;;1.17;;
27618;SDS011;15039;50.830;4.730;2022-08-04T01:44:46;4.03;;;1.05;;
27618;SDS011;15039;50.830;4.730;2022-08-04T01:47:13;0.98;;;0.93;;
27618;SDS011;15039;50.830;4.730;2022-08-04T01:49:44;3.35;;;1.17;;
27618;SDS011;15039;50.830;4.730;2022-08-04T01:52:13;2.97;;;1.20;;
27618;SDS011;15039;50.830;4.730;2022-08-04T01:54:42;1.45;;;1.10;;
27618;SDS011;15039;50.830;4.730;2022-08-04T01:57:11;1.58;;;1.20;;
27618;SDS011;15039;50.830;4.730;2022-08-04T01:59:38;4.30;;;1.20;;
27618;SDS011;15039;50.830;4.730;2022-08-04T02:04:34;3.67;;;1.20;;
27618;SDS011;15039;50.830;4.730;2022-08-04T02:07:24;3.40;;;1.20;;
27618;SDS011;15039;50.830;4.730;2022-08-04T02:10:05;2.45;;;1.02;;
27618;SDS011;15039;50.830;4.730;2022-08-04T02:20:39;2.60;;;1.33;;
27618;SDS011;15039;50.830;4.730;2022-08-04T02:23:15;4.40;;;1.05;;
27618;SDS011;15039;50.830;4.730;2022-08-04T02:26:00;5.55;;;1.33;;
27618;SDS011;15039;50.830;4.730;2022-08-04T02:28:46;1.63;;;1.00;;
27618;SDS011;15039;50.830;4.730;2022-08-04T02:36:39;1.98;;;1.33;;
27618;SDS011;15039;50.830;4.730;2022-08-04T02:39:06;7.55;;;1.67;;
27618;SDS011;15039;50.830;4.730;2022-08-04T02:41:36;4.05;;;1.48;;
27618;SDS011;15039;50.830;4.730;2022-08-04T02:44:05;3.25;;;1.42;;
27618;SDS011;15039;50.830;4.730;2022-08-04T02:46:33;6.40;;;1.30;;
27618;SDS011;15039;50.830;4.730;2022-08-04T02:49:01;2.58;;;1.30;;
27618;SDS011;15039;50.830;4.730;2022-08-04T02:51:52;5.63;;;1.60;;
27618;SDS011;15039;50.830;4.730;2022-08-04T02:54:16;2.45;;;1.40;;
27618;SDS011;15039;50.830;4.730;2022-08-04T02:56:44;3.67;;;1.75;;
27618;SDS011;15039;50.830;4.730;2022-08-04T02:59:11;5.75;;;1.67;;
27618;SDS011;15039;50.830;4.730;2022-08-04T03:01:38;14.25;;;1.80;;
27618;SDS011;15039;50.830;4.730;2022-08-04T03:04:25;3.83;;;1.30;;
27618;SDS011;15039;50.830;4.730;2022-08-04T03:13:17;3.85;;;1.88;;
27618;SDS011;15039;50.830;4.730;2022-08-04T03:18:50;9.52;;;2.17;;
27618;SDS011;15039;50.830;4.730;2022-08-04T03:26:59;6.63;;;2.05;;
27618;SDS011;15039;50.830;4.730;2022-08-04T03:34:58;6.35;;;2.28;;
27618;SDS011;15039;50.830;4.730;2022-08-04T03:43:04;3.40;;;1.60;;
27618;SDS011;15039;50.830;4.730;2022-08-04T03:49:06;8.88;;;2.67;;
27618;SDS011;15039;50.830;4.730;2022-08-04T03:51:37;3.78;;;2.80;;
27618;SDS011;15039;50.830;4.730;2022-08-04T04:00:03;8.57;;;2.80;;
27618;SDS011;15039;50.830;4.730;2022-08-04T04:22:59;4.22;;;3.17;;
27618;SDS011;15039;50.830;4.730;2022-08-04T04:25:54;8.20;;;3.40;;
27618;SDS011;15039;50.830;4.730;2022-08-04T04:34:39;9.68;;;3.47;;
27618;SDS011;15039;50.830;4.730;2022-08-04T04:37:49;6.68;;;3.50;;
27618;SDS011;15039;50.830;4.730;2022-08-04T04:40:26;8.77;;;2.88;;
27618;SDS011;15039;50.830;4.730;2022-08-04T04:48:31;6.88;;;3.17;;
27618;SDS011;15039;50.830;4.730;2022-08-04T04:51:32;6.88;;;3.33;;
27618;SDS011;15039;50.830;4.730;2022-08-04T04:56:55;11.02;;;3.55;;
27618;SDS011;15039;50.830;4.730;2022-08-04T04:59:27;10.93;;;3.13;;
27618;SDS011;15039;50.830;4.730;2022-08-04T05:18:41;9.93;;;3.05;;
27618;SDS011;15039;50.830;4.730;2022-08-04T05:23:55;7.38;;;3.10;;
27618;SDS011;15039;50.830;4.730;2022-08-04T05:26:29;7.53;;;3.03;;
27618;SDS011;15039;50.830;4.730;2022-08-04T05:28:58;8.05;;;3.03;;
27618;SDS011;15039;50.830;4.730;2022-08-04T05:31:32;6.90;;;2.78;;
27618;SDS011;15039;50.830;4.730;2022-08-04T05:34:11;5.80;;;2.70;;
27618;SDS011;15039;50.830;4.730;2022-08-04T05:36:48;6.93;;;2.80;;
27618;SDS011;15039;50.830;4.730;2022-08-04T05:39:18;5.35;;;2.55;;
27618;SDS011;15039;50.830;4.730;2022-08-04T05:41:46;5.00;;;2.50;;
27618;SDS011;15039;50.830;4.730;2022-08-04T05:44:16;6.40;;;2.67;;
27618;SDS011;15039;50.830;4.730;2022-08-04T05:46:44;7.35;;;2.65;;
27618;SDS011;15039;50.830;4.730;2022-08-04T05:49:13;6.68;;;2.53;;
27618;SDS011;15039;50.830;4.730;2022-08-04T05:51:39;4.88;;;2.20;;
27618;SDS011;15039;50.830;4.730;2022-08-04T05:54:07;3.92;;;2.38;;
27618;SDS011;15039;50.830;4.730;2022-08-04T05:56:34;11.27;;;2.47;;
27618;SDS011;15039;50.830;4.730;2022-08-04T05:59:02;7.88;;;2.20;;
27618;SDS011;15039;50.830;4.730;2022-08-04T06:01:29;7.35;;;2.45;;
27618;SDS011;15039;50.830;4.730;2022-08-04T06:03:56;6.90;;;2.20;;
27618;SDS011;15039;50.830;4.730;2022-08-04T06:06:24;5.32;;;1.90;;
27618;SDS011;15039;50.830;4.730;2022-08-04T06:08:50;5.25;;;2.40;;
27618;SDS011;15039;50.830;4.730;2022-08-04T06:11:16;6.30;;;2.38;;
27618;SDS011;15039;50.830;4.730;2022-08-04T06:13:52;6.50;;;2.22;;
27618;SDS011;15039;50.830;4.730;2022-08-04T06:16:24;7.68;;;2.28;;
27618;SDS011;15039;50.830;4.730;2022-08-04T06:18:53;4.75;;;2.00;;
27618;SDS011;15039;50.830;4.730;2022-08-04T06:21:22;4.60;;;2.10;;
27618;SDS011;15039;50.830;4.730;2022-08-04T06:23:50;7.95;;;2.33;;
27618;SDS011;15039;50.830;4.730;2022-08-04T06:26:18;5.90;;;2.20;;
27618;SDS011;15039;50.830;4.730;2022-08-04T06:28:46;5.57;;;2.22;;
27618;SDS011;15039;50.830;4.730;2022-08-04T06:31:16;5.80;;;2.10;;
27618;SDS011;15039;50.830;4.730;2022-08-04T06:34:06;4.13;;;2.25;;
27618;SDS011;15039;50.830;4.730;2022-08-04T06:36:35;8.23;;;2.22;;
27618;SDS011;15039;50.830;4.730;2022-08-04T06:39:05;6.63;;;2.70;;
27618;SDS011;15039;50.830;4.730;2022-08-04T06:41:32;5.13;;;2.05;;
27618;SDS011;15039;50.830;4.730;2022-08-04T06:43:59;7.50;;;2.25;;
27618;SDS011;15039;50.830;4.730;2022-08-04T06:48:56;7.40;;;2.45;;
27618;SDS011;15039;50.830;4.730;2022-08-04T06:51:23;7.15;;;2.38;;
27618;SDS011;15039;50.830;4.730;2022-08-04T06:53:50;5.43;;;2.28;;
27618;SDS011;15039;50.830;4.730;2022-08-04T06:56:16;3.75;;;2.38;;
27618;SDS011;15039;50.830;4.730;2022-08-04T06:58:44;7.25;;;2.22;;
27618;SDS011;15039;50.830;4.730;2022-08-04T07:01:13;7.07;;;2.33;;
27618;SDS011;15039;50.830;4.730;2022-08-04T07:03:42;4.05;;;2.13;;
27618;SDS011;15039;50.830;4.730;2022-08-04T07:06:08;6.72;;;2.75;;
27618;SDS011;15039;50.830;4.730;2022-08-04T07:08:34;5.03;;;2.05;;
27618;SDS011;15039;50.830;4.730;2022-08-04T07:11:00;5.45;;;1.95;;
27618;SDS011;15039;50.830;4.730;2022-08-04T07:13:26;8.05;;;2.47;;
27618;SDS011;15039;50.830;4.730;2022-08-04T07:15:54;8.60;;;2.17;;
27618;SDS011;15039;50.830;4.730;2022-08-04T07:18:21;7.55;;;2.28;;
27618;SDS011;15039;50.830;4.730;2022-08-04T07:20:47;5.05;;;2.22;;
27618;SDS011;15039;50.830;4.730;2022-08-04T07:23:14;5.93;;;2.10;;
27618;SDS011;15039;50.830;4.730;2022-08-04T07:25:55;6.53;;;2.33;;
27618;SDS011;15039;50.830;4.730;2022-08-04T07:28:23;6.28;;;2.20;;
27618;SDS011;15039;50.830;4.730;2022-08-04T07:30:50;8.18;;;1.85;;
27618;SDS011;15039;50.830;4.730;2022-08-04T07:33:17;10.63;;;2.10;;
27618;SDS011;15039;50.830;4.730;2022-08-04T07:35:44;4.75;;;1.40;;
27618;SDS011;15039;50.830;4.730;2022-08-04T07:38:12;8.95;;;2.05;;
27618;SDS011;15039;50.830;4.730;2022-08-04T07:40:37;5.65;;;1.45;;
27618;SDS011;15039;50.830;4.730;2022-08-04T07:43:03;8.73;;;2.08;;
27618;SDS011;15039;50.830;4.730;2022-08-04T07:45:29;6.65;;;1.73;;
27618;SDS011;15039;50.830;4.730;2022-08-04T07:47:56;7.43;;;1.48;;
27618;SDS011;15039;50.830;4.730;2022-08-04T07:50:22;5.88;;;1.75;;
27618;SDS011;15039;50.830;4.730;2022-08-04T07:52:48;6.22;;;1.50;;
27618;SDS011;15039;50.830;4.730;2022-08-04T07:55:15;8.93;;;1.92;;
27618;SDS011;15039;50.830;4.730;2022-08-04T07:57:42;5.78;;;1.60;;
27618;SDS011;15039;50.830;4.730;2022-08-04T08:00:08;6.68;;;1.50;;
27618;SDS011;15039;50.830;4.730;2022-08-04T08:02:36;7.07;;;1.70;;
27618;SDS011;15039;50.830;4.730;2022-08-04T08:05:03;4.82;;;1.58;;
27618;SDS011;15039;50.830;4.730;2022-08-04T08:07:29;7.75;;;1.55;;
27618;SDS011;15039;50.830;4.730;2022-08-04T08:09:55;6.28;;;1.70;;
27618;SDS011;15039;50.830;4.730;2022-08-04T08:12:20;7.13;;;1.90;;
27618;SDS011;15039;50.830;4.730;2022-08-04T08:14:47;4.47;;;1.60;;
27618;SDS011;15039;50.830;4.730;2022-08-04T08:17:13;4.65;;;1.63;;
27618;SDS011;15039;50.830;4.730;2022-08-04T08:19:39;5.90;;;1.40;;
27618;SDS011;15039;50.830;4.730;2022-08-04T08:22:05;7.88;;;1.60;;
27618;SDS011;15039;50.830;4.730;2022-08-04T08:24:34;4.95;;;1.83;;
27618;SDS011;15039;50.830;4.730;2022-08-04T08:27:02;9.50;;;1.80;;
27618;SDS011;15039;50.830;4.730;2022-08-04T08:29:28;5.13;;;1.63;;
27618;SDS011;15039;50.830;4.730;2022-08-04T08:31:57;11.10;;;2.00;;
27618;SDS011;15039;50.830;4.730;2022-08-04T08:34:25;5.70;;;1.50;;
27618;SDS011;15039;50.830;4.730;2022-08-04T08:36:54;11.07;;;2.25;;
27618;SDS011;15039;50.830;4.730;2022-08-04T08:39:31;11.77;;;2.40;;
27618;SDS011;15039;50.830;4.730;2022-08-04T09:04:39;5.65;;;1.80;;
27618;SDS011;15039;50.830;4.730;2022-08-04T09:12:50;7.47;;;2.40;;
27618;SDS011;15039;50.830;4.730;2022-08-04T09:18:36;6.97;;;1.90;;
27618;SDS011;15039;50.830;4.730;2022-08-04T09:21:16;13.32;;;2.30;;
27618;SDS011;15039;50.830;4.730;2022-08-04T09:29:16;26.02;;;2.72;;
27618;SDS011;15039;50.830;4.730;2022-08-04T09:31:56;11.57;;;2.45;;
27618;SDS011;15039;50.830;4.730;2022-08-04T09:37:06;8.88;;;2.70;;
27618;SDS011;15039;50.830;4.730;2022-08-04T09:39:41;5.38;;;2.35;;
27618;SDS011;15039;50.830;4.730;2022-08-04T09:48:04;7.43;;;2.40;;
27618;SDS011;15039;50.830;4.730;2022-08-04T09:56:13;7.03;;;2.40;;
27618;SDS011;15039;50.830;4.730;2022-08-04T10:01:34;9.85;;;2.40;;
27618;SDS011;15039;50.830;4.730;2022-08-04T10:04:02;7.03;;;2.42;;
27618;SDS011;15039;50.830;4.730;2022-08-04T10:12:28;8.60;;;3.00;;
27618;SDS011;15039;50.830;4.730;2022-08-04T10:26:35;13.23;;;3.35;;
27618;SDS011;15039;50.830;4.730;2022-08-04T10:29:15;8.10;;;3.65;;
27618;SDS011;15039;50.830;4.730;2022-08-04T10:34:30;8.40;;;3.63;;
27618;SDS011;15039;50.830;4.730;2022-08-04T10:40:04;9.27;;;3.95;;
27618;SDS011;15039;50.830;4.730;2022-08-04T10:42:56;9.32;;;3.97;;
27618;SDS011;15039;50.830;4.730;2022-08-04T10:45:25;10.65;;;4.03;;
27618;SDS011;15039;50.830;4.730;2022-08-04T10:48:06;5.93;;;4.00;;
27618;SDS011;15039;50.830;4.730;2022-08-04T10:50:39;6.93;;;3.83;;
27618;SDS011;15039;50.830;4.730;2022-08-04T10:53:13;9.77;;;4.07;;
27618;SDS011;15039;50.830;4.730;2022-08-04T10:58:44;6.57;;;4.28;;
27618;SDS011;15039;50.830;4.730;2022-08-04T11:01:16;8.25;;;4.55;;
27618;SDS011;15039;50.830;4.730;2022-08-04T11:03:55;7.80;;;3.88;;
27618;SDS011;15039;50.830;4.730;2022-08-04T11:06:24;10.05;;;4.60;;
27618;SDS011;15039;50.830;4.730;2022-08-04T11:08:52;10.23;;;5.13;;
27618;SDS011;15039;50.830;4.730;2022-08-04T11:11:29;13.63;;;4.90;;
27618;SDS011;15039;50.830;4.730;2022-08-04T11:14:03;6.60;;;3.72;;
27618;SDS011;15039;50.830;4.730;2022-08-04T11:16:41;8.30;;;4.30;;
27618;SDS011;15039;50.830;4.730;2022-08-04T11:22:02;8.15;;;4.03;;
27618;SDS011;15039;50.830;4.730;2022-08-04T11:27:21;9.05;;;4.20;;
27618;SDS011;15039;50.830;4.730;2022-08-04T11:30:03;8.25;;;4.45;;
27618;SDS011;15039;50.830;4.730;2022-08-04T11:32:31;11.68;;;5.32;;
27618;SDS011;15039;50.830;4.730;2022-08-04T11:35:08;9.88;;;5.15;;
27618;SDS011;15039;50.830;4.730;2022-08-04T11:37:42;8.10;;;5.65;;
27618;SDS011;15039;50.830;4.730;2022-08-04T11:42:50;9.68;;;5.43;;
27618;SDS011;15039;50.830;4.730;2022-08-04T11:45:32;12.10;;;5.90;;
27618;SDS011;15039;50.830;4.730;2022-08-04T11:48:22;9.15;;;5.28;;
27618;SDS011;15039;50.830;4.730;2022-08-04T11:50:53;8.57;;;5.32;;
27618;SDS011;15039;50.830;4.730;2022-08-04T11:53:22;8.02;;;4.97;;
27618;SDS011;15039;50.830;4.730;2022-08-04T11:55:50;8.77;;;4.38;;
27618;SDS011;15039;50.830;4.730;2022-08-04T11:58:22;8.02;;;4.80;;
27618;SDS011;15039;50.830;4.730;2022-08-04T12:03:26;6.82;;;3.88;;
27618;SDS011;15039;50.830;4.730;2022-08-04T12:17:03;12.90;;;6.23;;
27618;SDS011;15039;50.830;4.730;2022-08-04T12:19:38;14.55;;;6.72;;
27618;SDS011;15039;50.830;4.730;2022-08-04T12:22:17;12.63;;;7.43;;
27618;SDS011;15039;50.830;4.730;2022-08-04T12:24:51;11.88;;;6.65;;
27618;SDS011;15039;50.830;4.730;2022-08-04T12:27:35;10.75;;;7.05;;
27618;SDS011;15039;50.830;4.730;2022-08-04T12:30:05;13.15;;;5.63;;
27618;SDS011;15039;50.830;4.730;2022-08-04T12:37:37;12.35;;;7.13;;
27618;SDS011;15039;50.830;4.730;2022-08-04T12:40:13;17.52;;;8.43;;
27618;SDS011;15039;50.830;4.730;2022-08-04T12:42:44;15.30;;;7.55;;
27618;SDS011;15039;50.830;4.730;2022-08-04T12:45:14;13.13;;;7.38;;
27618;SDS011;15039;50.830;4.730;2022-08-04T12:47:41;11.52;;;7.57;;
27618;SDS011;15039;50.830;4.730;2022-08-04T12:50:12;16.23;;;8.40;;
27618;SDS011;15039;50.830;4.730;2022-08-04T12:55:10;18.85;;;8.27;;
27618;SDS011;15039;50.830;4.730;2022-08-04T12:57:37;12.15;;;7.72;;
27618;SDS011;15039;50.830;4.730;2022-08-04T13:00:05;14.57;;;8.98;;
27618;SDS011;15039;50.830;4.730;2022-08-04T13:02:34;20.27;;;9.38;;
27618;SDS011;15039;50.830;4.730;2022-08-04T13:05:08;14.20;;;8.73;;
27618;SDS011;15039;50.830;4.730;2022-08-04T13:07:39;14.60;;;8.60;;
27618;SDS011;15039;50.830;4.730;2022-08-04T13:10:14;15.30;;;8.85;;
27618;SDS011;15039;50.830;4.730;2022-08-04T13:12:52;14.50;;;8.60;;
27618;SDS011;15039;50.830;4.730;2022-08-04T13:15:23;16.33;;;8.77;;
27618;SDS011;15039;50.830;4.730;2022-08-04T13:20:34;13.13;;;8.32;;
27618;SDS011;15039;50.830;4.730;2022-08-04T13:23:05;13.63;;;8.25;;
27618;SDS011;15039;50.830;4.730;2022-08-04T13:25:34;13.95;;;8.57;;
27618;SDS011;15039;50.830;4.730;2022-08-04T13:28:04;14.98;;;8.70;;
27618;SDS011;15039;50.830;4.730;2022-08-04T13:30:32;13.93;;;7.68;;
27618;SDS011;15039;50.830;4.730;2022-08-04T13:32:59;14.35;;;7.22;;
27618;SDS011;15039;50.830;4.730;2022-08-04T13:35:26;11.55;;;6.75;;
27618;SDS011;15039;50.830;4.730;2022-08-04T13:37:54;10.80;;;6.15;;
27618;SDS011;15039;50.830;4.730;2022-08-04T13:40:22;11.80;;;6.78;;
27618;SDS011;15039;50.830;4.730;2022-08-04T13:42:50;9.75;;;6.68;;
27618;SDS011;15039;50.830;4.730;2022-08-04T13:45:21;12.93;;;7.00;;
27618;SDS011;15039;50.830;4.730;2022-08-04T13:47:48;10.93;;;7.18;;
27618;SDS011;15039;50.830;4.730;2022-08-04T13:50:19;13.63;;;7.25;;
27618;SDS011;15039;50.830;4.730;2022-08-04T13:52:54;11.02;;;6.18;;
27618;SDS011;15039;50.830;4.730;2022-08-04T13:55:28;10.38;;;6.05;;
27618;SDS011;15039;50.830;4.730;2022-08-04T14:00:40;15.73;;;7.00;;
27618;SDS011;15039;50.830;4.730;2022-08-04T14:03:28;10.25;;;6.45;;
27618;SDS011;15039;50.830;4.730;2022-08-04T14:06:05;10.52;;;6.30;;
27618;SDS011;15039;50.830;4.730;2022-08-04T14:11:29;9.93;;;5.93;;
27618;SDS011;15039;50.830;4.730;2022-08-04T14:13:56;9.57;;;4.97;;
27618;SDS011;15039;50.830;4.730;2022-08-04T14:16:21;11.10;;;5.20;;
27618;SDS011;15039;50.830;4.730;2022-08-04T14:18:56;11.93;;;5.25;;
27618;SDS011;15039;50.830;4.730;2022-08-04T14:21:23;7.65;;;4.93;;
27618;SDS011;15039;50.830;4.730;2022-08-04T14:23:50;7.88;;;4.72;;
27618;SDS011;15039;50.830;4.730;2022-08-04T14:28:50;8.60;;;3.92;;
27618;SDS011;15039;50.830;4.730;2022-08-04T14:31:20;7.10;;;2.95;;
27618;SDS011;15039;50.830;4.730;2022-08-04T14:33:47;5.28;;;3.05;;
27618;SDS011;15039;50.830;4.730;2022-08-04T14:36:15;5.40;;;3.28;;
27618;SDS011;15039;50.830;4.730;2022-08-04T14:38:49;7.22;;;3.33;;
27618;SDS011;15039;50.830;4.730;2022-08-04T14:41:19;7.90;;;4.05;;
27618;SDS011;15039;50.830;4.730;2022-08-04T14:43:50;6.90;;;3.28;;
27618;SDS011;15039;50.830;4.730;2022-08-04T14:46:21;5.10;;;3.53;;
27618;SDS011;15039;50.830;4.730;2022-08-04T14:49:08;8.45;;;3.00;;
27618;SDS011;15039;50.830;4.730;2022-08-04T14:51:40;8.30;;;3.17;;
27618;SDS011;15039;50.830;4.730;2022-08-04T14:54:08;7.63;;;2.42;;
27618;SDS011;15039;50.830;4.730;2022-08-04T14:56:35;5.38;;;3.28;;
27618;SDS011;15039;50.830;4.730;2022-08-04T14:59:06;8.93;;;3.60;;
27618;SDS011;15039;50.830;4.730;2022-08-04T15:01:35;5.72;;;2.97;;
27618;SDS011;15039;50.830;4.730;2022-08-04T15:04:03;5.13;;;2.70;;
27618;SDS011;15039;50.830;4.730;2022-08-04T15:06:30;5.03;;;2.78;;
27618;SDS011;15039;50.830;4.730;2022-08-04T15:08:58;5.28;;;2.58;;
27618;SDS011;15039;50.830;4.730;2022-08-04T15:13:51;6.10;;;3.85;;
27618;SDS011;15039;50.830;4.730;2022-08-04T15:16:18;9.57;;;3.40;;
27618;SDS011;15039;50.830;4.730;2022-08-04T15:18:45;7.28;;;2.60;;
27618;SDS011;15039;50.830;4.730;2022-08-04T15:21:12;7.50;;;2.80;;
27618;SDS011;15039;50.830;4.730;2022-08-04T15:23:39;4.18;;;2.45;;
27618;SDS011;15039;50.830;4.730;2022-08-04T15:26:06;6.82;;;2.90;;
27618;SDS011;15039;50.830;4.730;2022-08-04T15:28:36;4.10;;;2.28;;
27618;SDS011;15039;50.830;4.730;2022-08-04T15:31:03;5.88;;;2.70;;
27618;SDS011;15039;50.830;4.730;2022-08-04T15:33:30;4.68;;;3.25;;
27618;SDS011;15039;50.830;4.730;2022-08-04T15:36:33;5.68;;;3.00;;
27618;SDS011;15039;50.830;4.730;2022-08-04T15:47:28;6.32;;;2.45;;
27618;SDS011;15039;50.830;4.730;2022-08-04T15:50:27;6.50;;;3.13;;
27618;SDS011;15039;50.830;4.730;2022-08-04T15:55:58;3.50;;;2.75;;
27618;SDS011;15039;50.830;4.730;2022-08-04T15:58:17;7.30;;;2.65;;
27618;SDS011;15039;50.830;4.730;2022-08-04T16:01:29;3.90;;;2.30;;
27618;SDS011;15039;50.830;4.730;2022-08-04T16:16:28;4.03;;;2.40;;
27618;SDS011;15039;50.830;4.730;2022-08-04T16:19:04;3.53;;;2.50;;
27618;SDS011;15039;50.830;4.730;2022-08-04T16:21:33;7.63;;;3.10;;
27618;SDS011;15039;50.830;4.730;2022-08-04T16:24:20;4.77;;;2.60;;
27618;SDS011;15039;50.830;4.730;2022-08-04T16:27:01;7.13;;;2.88;;
27618;SDS011;15039;50.830;4.730;2022-08-04T16:29:32;6.65;;;2.50;;
27618;SDS011;15039;50.830;4.730;2022-08-04T16:34:36;6.30;;;2.28;;
27618;SDS011;15039;50.830;4.730;2022-08-04T16:37:22;4.38;;;1.90;;
27618;SDS011;15039;50.830;4.730;2022-08-04T16:39:49;4.90;;;2.28;;
27618;SDS011;15039;50.830;4.730;2022-08-04T16:43:03;4.90;;;2.13;;
27618;SDS011;15039;50.830;4.730;2022-08-04T16:48:09;4.28;;;1.92;;
27618;SDS011;15039;50.830;4.730;2022-08-04T16:50:46;10.00;;;2.30;;
27618;SDS011;15039;50.830;4.730;2022-08-04T16:53:35;5.85;;;2.15;;
27618;SDS011;15039;50.830;4.730;2022-08-04T16:56:03;4.22;;;2.20;;
27618;SDS011;15039;50.830;4.730;2022-08-04T16:58:30;5.95;;;2.22;;
27618;SDS011;15039;50.830;4.730;2022-08-04T17:00:57;7.32;;;2.58;;
27618;SDS011;15039;50.830;4.730;2022-08-04T17:03:31;8.75;;;2.20;;
27618;SDS011;15039;50.830;4.730;2022-08-04T17:06:07;5.80;;;2.70;;
27618;SDS011;15039;50.830;4.730;2022-08-04T17:08:34;6.30;;;2.53;;
27618;SDS011;15039;50.830;4.730;2022-08-04T17:11:02;5.50;;;2.50;;
27618;SDS011;15039;50.830;4.730;2022-08-04T17:13:33;7.43;;;2.45;;
27618;SDS011;15039;50.830;4.730;2022-08-04T17:16:05;9.57;;;2.20;;
27618;SDS011;15039;50.830;4.730;2022-08-04T17:18:34;7.75;;;2.38;;
27618;SDS011;15039;50.830;4.730;2022-08-04T17:21:04;3.78;;;2.60;;
27618;SDS011;15039;50.830;4.730;2022-08-04T17:23:38;5.53;;;2.88;;
27618;SDS011;15039;50.830;4.730;2022-08-04T17:28:34;6.82;;;2.20;;
27618;SDS011;15039;50.830;4.730;2022-08-04T17:31:00;3.60;;;2.10;;
27618;SDS011;15039;50.830;4.730;2022-08-04T17:33:27;8.27;;;2.53;;
27618;SDS011;15039;50.830;4.730;2022-08-04T17:35:57;5.82;;;2.42;;
27618;SDS011;15039;50.830;4.730;2022-08-04T17:38:34;7.38;;;2.70;;
27618;SDS011;15039;50.830;4.730;2022-08-04T17:41:09;4.80;;;2.35;;
27618;SDS011;15039;50.830;4.730;2022-08-04T17:43:56;5.90;;;2.58;;
27618;SDS011;15039;50.830;4.730;2022-08-04T17:46:24;7.97;;;2.63;;
27618;SDS011;15039;50.830;4.730;2022-08-04T17:48:57;3.45;;;2.40;;
27618;SDS011;15039;50.830;4.730;2022-08-04T17:54:14;6.10;;;2.33;;
27618;SDS011;15039;50.830;4.730;2022-08-04T17:56:45;2.38;;;1.88;;
27618;SDS011;15039;50.830;4.730;2022-08-04T17:59:20;6.45;;;2.17;;
27618;SDS011;15039;50.830;4.730;2022-08-04T18:01:51;4.80;;;2.45;;
27618;SDS011;15039;50.830;4.730;2022-08-04T18:06:55;4.78;;;1.80;;
27618;SDS011;15039;50.830;4.730;2022-08-04T18:09:23;5.57;;;1.85;;
27618;SDS011;15039;50.830;4.730;2022-08-04T18:12:00;6.15;;;1.83;;
27618;SDS011;15039;50.830;4.730;2022-08-04T18:14:27;3.22;;;1.73;;
27618;SDS011;15039;50.830;4.730;2022-08-04T18:17:01;4.18;;;1.70;;
27618;SDS011;15039;50.830;4.730;2022-08-04T18:19:26;4.32;;;1.90;;
27618;SDS011;15039;50.830;4.730;2022-08-04T18:21:52;6.80;;;1.88;;
27618;SDS011;15039;50.830;4.730;2022-08-04T18:24:18;10.63;;;1.92;;
27618;SDS011;15039;50.830;4.730;2022-08-04T18:26:44;3.70;;;2.00;;
27618;SDS011;15039;50.830;4.730;2022-08-04T18:29:10;4.55;;;2.05;;
27618;SDS011;15039;50.830;4.730;2022-08-04T18:31:36;6.82;;;2.15;;
27618;SDS011;15039;50.830;4.730;2022-08-04T18:34:07;7.03;;;1.92;;
27618;SDS011;15039;50.830;4.730;2022-08-04T18:36:34;4.57;;;1.77;;
27618;SDS011;15039;50.830;4.730;2022-08-04T18:39:01;7.28;;;2.20;;
27618;SDS011;15039;50.830;4.730;2022-08-04T18:41:29;3.67;;;1.67;;
27618;SDS011;15039;50.830;4.730;2022-08-04T18:43:55;4.63;;;2.28;;
27618;SDS011;15039;50.830;4.730;2022-08-04T18:46:21;6.20;;;2.63;;
27618;SDS011;15039;50.830;4.730;2022-08-04T18:48:50;8.23;;;1.75;;
27618;SDS011;15039;50.830;4.730;2022-08-04T18:51:16;6.00;;;2.30;;
27618;SDS011;15039;50.830;4.730;2022-08-04T18:53:45;4.07;;;1.90;;
27618;SDS011;15039;50.830;4.730;2022-08-04T18:56:12;5.25;;;2.25;;
27618;SDS011;15039;50.830;4.730;2022-08-04T18:58:40;5.03;;;1.90;;
27618;SDS011;15039;50.830;4.730;2022-08-04T19:01:05;3.33;;;1.45;;
27618;SDS011;15039;50.830;4.730;2022-08-04T19:03:32;5.47;;;1.95;;
27618;SDS011;15039;50.830;4.730;2022-08-04T19:05:58;7.18;;;1.85;;
27618;SDS011;15039;50.830;4.730;2022-08-04T19:08:25;3.10;;;1.60;;
27618;SDS011;15039;50.830;4.730;2022-08-04T19:10:50;3.25;;;1.50;;
27618;SDS011;15039;50.830;4.730;2022-08-04T19:13:16;5.00;;;1.75;;
27618;SDS011;15039;50.830;4.730;2022-08-04T19:15:42;5.75;;;2.10;;
27618;SDS011;15039;50.830;4.730;2022-08-04T19:18:07;3.90;;;1.88;;
27618;SDS011;15039;50.830;4.730;2022-08-04T19:20:33;7.13;;;2.35;;
27618;SDS011;15039;50.830;4.730;2022-08-04T19:22:58;6.93;;;2.38;;
27618;SDS011;15039;50.830;4.730;2022-08-04T19:25:24;4.38;;;2.45;;
27618;SDS011;15039;50.830;4.730;2022-08-04T19:27:50;9.48;;;2.97;;
27618;SDS011;15039;50.830;4.730;2022-08-04T19:30:15;5.18;;;2.65;;
27618;SDS011;15039;50.830;4.730;2022-08-04T19:32:41;5.60;;;2.72;;
27618;SDS011;15039;50.830;4.730;2022-08-04T19:35:07;7.13;;;3.10;;
27618;SDS011;15039;50.830;4.730;2022-08-04T19:37:32;6.75;;;3.17;;
27618;SDS011;15039;50.830;4.730;2022-08-04T19:39:58;5.35;;;3.35;;
27618;SDS011;15039;50.830;4.730;2022-08-04T19:42:24;5.53;;;2.83;;
27618;SDS011;15039;50.830;4.730;2022-08-04T19:44:49;4.22;;;2.70;;
27618;SDS011;15039;50.830;4.730;2022-08-04T19:47:15;7.90;;;2.95;;
27618;SDS011;15039;50.830;4.730;2022-08-04T19:49:41;9.13;;;3.15;;
27618;SDS011;15039;50.830;4.730;2022-08-04T19:52:06;7.85;;;3.97;;
27618;SDS011;15039;50.830;4.730;2022-08-04T19:54:32;6.80;;;3.30;;
27618;SDS011;15039;50.830;4.730;2022-08-04T19:56:58;6.38;;;3.35;;
27618;SDS011;15039;50.830;4.730;2022-08-04T19:59:23;5.75;;;3.30;;
27618;SDS011;15039;50.830;4.730;2022-08-04T20:01:49;8.00;;;3.65;;
27618;SDS011;15039;50.830;4.730;2022-08-04T20:04:15;10.18;;;4.18;;
27618;SDS011;15039;50.830;4.730;2022-08-04T20:06:41;5.50;;;3.47;;
27618;SDS011;15039;50.830;4.730;2022-08-04T20:09:07;6.82;;;3.78;;
27618;SDS011;15039;50.830;4.730;2022-08-04T20:11:33;7.88;;;4.25;;
27618;SDS011;15039;50.830;4.730;2022-08-04T20:13:59;8.30;;;4.05;;
27618;SDS011;15039;50.830;4.730;2022-08-04T20:16:24;7.25;;;4.22;;